Time;durP1;ratioP1;P1;durP2;ratioP2;P2;SDS_P1;SDS_P2;PMS_P1;PMS_P2;Temp;Humidity;BMP_temperature;BMP_pressure;BME280_temperature;BME280_humidity;BME280_pressure;Samples;Min_cycle;Max_cycle;Signal;HPM_P1;HPM_P2
2022/07/18 00:00:52;;;;;;;;;;;;;;;;;;4987870;28;19953;-79
2022/07/18 00:03:20;;;;;;;;;;;;;;;;;;5025929;28;20276;-79
2022/07/18 00:05:48;;;;;;;;;;;;;;;;;;5009791;28;19930;-79
2022/07/18 00:08:15;;;;;;;;;;;;;;;;;;4985731;28;19926;-79
2022/07/18 00:10:43;;;;;;;;;;;;;;;;;;5009538;28;19930;-79
2022/07/18 00:14:00;;;;;;;;;;;;;;;;;;5021293;28;20406;-79
2022/07/18 00:16:31;;;;;;;;;;;;;;;;;;4977875;28;20488;-79
2022/07/18 00:18:59;;;;;;;;;;;;;;;;;;4993286;28;19925;-79
2022/07/18 00:21:27;;;;;;;;;;;;;;;;;;4990658;28;19929;-79
2022/07/18 00:23:55;;;;;;;;;;;;;;;;;;4999115;28;20336;-79
2022/07/18 00:26:22;;;;;;;;;;;;;;;;;;4988069;28;19934;-79
2022/07/18 00:28:50;;;;;;;;;;;;;;;;;;4989876;28;20343;-79
2022/07/18 00:31:17;;;;;;;;;;;;;;;;;;4987059;28;19937;-79
2022/07/18 00:33:45;;;;;;;;;;;;;;;;;;4990377;28;19926;-79
2022/07/18 00:36:13;;;;;;;;;;;;;;;;;;4988931;28;20348;-79
2022/07/18 00:38:41;;;;;;;;;;;;;;;;;;4991014;28;20016;-79
2022/07/18 00:41:08;;;;;;;;;;;;;;;;;;4986205;28;19934;-79
2022/07/18 00:43:36;;;;;;;;;;;;;;;;;;4990038;28;19929;-79
2022/07/18 00:46:07;;;;;;;;;;;;;;;;;;4979657;28;20404;-79
2022/07/18 00:48:35;;;;;;;;;;;;;;;;;;4995816;28;19938;-79
2022/07/18 00:51:02;;;;;;;;;;;;;;;;;;4967028;28;20037;-79
2022/07/18 00:53:55;;;;;;;;;;;;;;;;;;5002443;28;20559;-79
2022/07/18 00:56:23;;;;;;;;;;;;;;;;;;4964459;28;20301;-79
2022/07/18 00:58:50;;;;;;;;;;;;;;;;;;4953617;28;20403;-79
2022/07/18 01:01:42;;;;;;;;;;;;;;;;;;4963345;28;19930;-79
2022/07/18 01:04:10;;;;;;;;;;;;;;;;;;4970118;28;19933;-79
2022/07/18 01:06:37;;;;;;;;;;;;;;;;;;4967582;28;19954;-79
2022/07/18 01:09:05;;;;;;;;;;;;;;;;;;4971517;28;20020;-79
2022/07/18 01:11:33;;;;;;;;;;;;;;;;;;4967822;28;19985;-79
2022/07/18 01:14:01;;;;;;;;;;;;;;;;;;4974134;28;20012;-79
2022/07/18 01:16:28;;;;;;;;;;;;;;;;;;4965609;28;19926;-79
2022/07/18 01:18:56;;;;;;;;;;;;;;;;;;4974823;28;19934;-79
2022/07/18 01:21:24;;;;;;;;;;;;;;;;;;4996546;28;20021;-79
2022/07/18 01:23:52;;;;;;;;;;;;;;;;;;4972635;28;19926;-79
2022/07/18 01:26:19;;;;;;;;;;;;;;;;;;4969965;28;19976;-79
2022/07/18 01:28:47;;;;;;;;;;;;;;;;;;4963039;28;19997;-79
2022/07/18 01:31:14;;;;;;;;;;;;;;;;;;4985529;28;19944;-79
2022/07/18 01:33:42;;;;;;;;;;;;;;;;;;4962574;28;19932;-79
2022/07/18 01:36:10;;;;;;;;;;;;;;;;;;4959103;28;20389;-79
2022/07/18 01:38:38;;;;;;;;;;;;;;;;;;4974416;28;19977;-79
2022/07/18 01:41:09;;;;;;;;;;;;;;;;;;4988727;28;19988;-79
2022/07/18 01:43:39;;;;;;;;;;;;;;;;;;4972389;28;19926;-79
2022/07/18 01:46:08;;;;;;;;;;;;;;;;;;4987846;28;19930;-79
2022/07/18 01:48:39;;;;;;;;;;;;;;;;;;4983756;28;19977;-79
2022/07/18 01:51:10;;;;;;;;;;;;;;;;;;4972805;28;19933;-79
2022/07/18 01:53:42;;;;;;;;;;;;;;;;;;4989658;28;20385;-79
2022/07/18 01:56:09;;;;;;;;;;;;;;;;;;4990582;28;19934;-79
2022/07/18 01:58:37;;;;;;;;;;;;;;;;;;4968701;28;19926;-79
2022/07/18 02:01:07;;;;;;;;;;;;;;;;;;5003123;28;20071;-79
2022/07/18 02:03:58;;;;;;;;;;;;;;;;;;4987466;28;20421;-78
2022/07/18 02:06:26;;;;;;;;;;;;;;;;;;4994505;28;21143;-78
2022/07/18 02:08:54;;;;;;;;;;;;;;;;;;4994137;28;19925;-79
2022/07/18 02:11:21;;;;;;;;;;;;;;;;;;5000196;28;20320;-79
2022/07/18 02:13:49;;;;;;;;;;;;;;;;;;4998768;28;19929;-78
2022/07/18 02:16:18;;;;;;;;;;;;;;;;;;5020081;28;19992;-78
2022/07/18 02:18:45;;;;;;;;;;;;;;;;;;5030090;28;19925;-78
2022/07/18 02:21:17;;;;;;;;;;;;;;;;;;5027061;28;20037;-78
2022/07/18 02:23:45;;;;;;;;;;;;;;;;;;4993324;28;19948;-78
2022/07/18 02:26:13;;;;;;;;;;;;;;;;;;5017266;28;19933;-78
2022/07/18 02:28:40;;;;;;;;;;;;;;;;;;4997917;28;20636;-80
2022/07/18 02:31:08;;;;;;;;;;;;;;;;;;4985399;28;19938;-74
2022/07/18 02:33:36;;;;;;;;;;;;;;;;;;4992801;28;19926;-80
2022/07/18 02:36:03;;;;;;;;;;;;;;;;;;5021195;28;19926;-80
2022/07/18 02:38:34;;;;;;;;;;;;;;;;;;4990033;28;20368;-79
2022/07/18 02:41:01;;;;;;;;;;;;;;;;;;5025013;28;20273;-80
2022/07/18 02:43:29;;;;;;;;;;;;;;;;;;4994035;28;19930;-78
2022/07/18 02:46:21;;;;;;;;;;;;;;;;;;4987216;28;20297;-79
2022/07/18 02:48:49;;;;;;;;;;;;;;;;;;5008158;28;19961;-79
2022/07/18 02:51:17;;;;;;;;;;;;;;;;;;4992305;28;19980;-79
2022/07/18 02:53:45;;;;;;;;;;;;;;;;;;4973401;28;19981;-79
2022/07/18 02:56:13;;;;;;;;;;;;;;;;;;5008501;28;20028;-79
2022/07/18 02:58:40;;;;;;;;;;;;;;;;;;5003238;28;19936;-79
2022/07/18 03:01:08;;;;;;;;;;;;;;;;;;4990824;28;19989;-79
2022/07/18 03:03:35;;;;;;;;;;;;;;;;;;4966813;28;20460;-79
2022/07/18 03:06:03;;;;;;;;;;;;;;;;;;5011583;28;19932;-79
2022/07/18 03:08:35;;;;;;;;;;;;;;;;;;4964274;28;19926;-79
2022/07/18 03:11:02;;;;;;;;;;;;;;;;;;4983635;28;20028;-79
2022/07/18 03:13:30;;;;;;;;;;;;;;;;;;4982913;28;19946;-79
2022/07/18 03:15:58;;;;;;;;;;;;;;;;;;4972708;28;20256;-79
2022/07/18 03:18:26;;;;;;;;;;;;;;;;;;4971208;28;20382;-79
2022/07/18 03:20:54;;;;;;;;;;;;;;;;;;4967852;28;20270;-79
2022/07/18 03:23:22;;;;;;;;;;;;;;;;;;4968580;28;20009;-79
2022/07/18 03:25:49;;;;;;;;;;;;;;;;;;4987771;28;20360;-79
2022/07/18 03:28:17;;;;;;;;;;;;;;;;;;4986240;28;19934;-78
2022/07/18 03:30:44;;;;;;;;;;;;;;;;;;4952665;28;19926;-79
2022/07/18 03:33:12;;;;;;;;;;;;;;;;;;4968197;28;19931;-79
2022/07/18 03:35:39;;;;;;;;;;;;;;;;;;5000545;28;19925;-79
2022/07/18 03:38:07;;;;;;;;;;;;;;;;;;4973094;28;19926;-79
2022/07/18 03:40:35;;;;;;;;;;;;;;;;;;5004255;28;19926;-78
2022/07/18 03:43:02;;;;;;;;;;;;;;;;;;4967698;28;19933;-79
2022/07/18 03:45:30;;;;;;;;;;;;;;;;;;5001048;28;19926;-78
2022/07/18 03:47:58;;;;;;;;;;;;;;;;;;4992693;28;19984;-79
2022/07/18 03:50:27;;;;;;;;;;;;;;;;;;4991480;28;20379;-79
2022/07/18 03:52:54;;;;;;;;;;;;;;;;;;4988449;28;19926;-79
2022/07/18 03:55:22;;;;;;;;;;;;;;;;;;5018404;28;19926;-80
2022/07/18 03:57:50;;;;;;;;;;;;;;;;;;5006980;28;20356;-81
2022/07/18 04:00:18;;;;;;;;;;;;;;;;;;4983830;28;19957;-82
2022/07/18 04:02:46;;;;;;;;;;;;;;;;;;4955623;28;19981;-76
2022/07/18 04:05:13;;;;;;;;;;;;;;;;;;5003545;28;19934;-76
2022/07/18 04:07:41;;;;;;;;;;;;;;;;;;5021962;28;20024;-80
2022/07/18 04:10:09;;;;;;;;;;;;;;;;;;4991380;28;20394;-82
2022/07/18 04:12:56;;;;;;;;;;;;;;;;;;4998408;28;20410;-82
2022/07/18 04:15:26;;;;;;;;;;;;;;;;;;5018763;28;19926;-78
2022/07/18 04:18:14;;;;;;;;;;;;;;;;;;5020898;28;19932;-82
2022/07/18 04:21:25;;;;;;;;;;;;;;;;;;4995255;28;20020;-81
2022/07/18 04:24:13;;;;;;;;;;;;;;;;;;5022472;28;19932;-82
2022/07/18 04:27:01;;;;;;;;;;;;;;;;;;5009479;28;20455;-82
2022/07/18 04:29:48;;;;;;;;;;;;;;;;;;5005203;28;20378;-82
2022/07/18 04:32:36;;;;;;;;;;;;;;;;;;5009806;28;19926;-76
2022/07/18 04:35:24;;;;;;;;;;;;;;;;;;5022427;28;19925;-83
2022/07/18 04:38:12;;;;;;;;;;;;;;;;;;5005492;28;19933;-81
2022/07/18 04:40:59;;;;;;;;;;;;;;;;;;4999332;28;19955;-79
2022/07/18 04:43:48;;;;;;;;;;;;;;;;;;5005918;28;20004;-81
2022/07/18 04:46:35;;;;;;;;;;;;;;;;;;5018125;28;19948;-76
2022/07/18 04:49:03;;;;;;;;;;;;;;;;;;5009442;28;19933;-83
2022/07/18 04:51:31;;;;;;;;;;;;;;;;;;5026846;28;19926;-83
2022/07/18 04:53:58;;;;;;;;;;;;;;;;;;5001701;28;20056;-85
2022/07/18 04:56:26;;;;;;;;;;;;;;;;;;5010859;28;19932;-81
2022/07/18 04:59:12;;;;;;;;;;;;;;;;;;5025427;28;19941;-81
2022/07/18 05:01:58;;;;;;;;;;;;;;;;;;5013517;28;20064;-82
2022/07/18 05:04:26;;;;;;;;;;;;;;;;;;5013643;28;19932;-81
2022/07/18 05:07:10;;;;;;;;;;;;;;;;;;5006015;28;20092;-81
2022/07/18 05:09:39;;;;;;;;;;;;;;;;;;5019209;28;19965;-87
2022/07/18 05:12:07;;;;;;;;;;;;;;;;;;5010179;28;19933;-91
2022/07/18 05:14:35;;;;;;;;;;;;;;;;;;5027477;28;19935;-94
2022/07/18 05:17:05;;;;;;;;;;;;;;;;;;5022476;28;20020;-90
2022/07/18 05:19:40;;;;;;;;;;;;;;;;;;5015041;28;19926;-89
2022/07/18 05:22:08;;;;;;;;;;;;;;;;;;5029611;28;20001;-90
2022/07/18 05:24:36;;;;;;;;;;;;;;;;;;5026564;28;19956;-84
2022/07/18 05:27:03;;;;;;;;;;;;;;;;;;4995672;28;19925;-77
2022/07/18 05:29:31;;;;;;;;;;;;;;;;;;5011361;28;20550;-78
2022/07/18 05:31:58;;;;;;;;;;;;;;;;;;5010304;28;19936;-77
2022/07/18 05:34:26;;;;;;;;;;;;;;;;;;5014536;28;20016;-77
2022/07/18 05:36:54;;;;;;;;;;;;;;;;;;4979690;28;20419;-77
2022/07/18 05:39:22;;;;;;;;;;;;;;;;;;5028224;28;20356;-77
2022/07/18 05:41:50;;;;;;;;;;;;;;;;;;4995741;28;19953;-77
2022/07/18 05:44:19;;;;;;;;;;;;;;;;;;5028938;28;19991;-77
2022/07/18 05:46:47;;;;;;;;;;;;;;;;;;4981383;28;19926;-77
2022/07/18 05:49:15;;;;;;;;;;;;;;;;;;5010202;28;20638;-76
2022/07/18 05:51:42;;;;;;;;;;;;;;;;;;5008768;28;19977;-77
2022/07/18 05:54:18;;;;;;;;;;;;;;;;;;5026003;28;19952;-76
2022/07/18 05:56:45;;;;;;;;;;;;;;;;;;5028662;28;19965;-77
2022/07/18 05:59:13;;;;;;;;;;;;;;;;;;5013300;28;20356;-76
2022/07/18 06:01:41;;;;;;;;;;;;;;;;;;4980098;28;20294;-73
2022/07/18 06:04:09;;;;;;;;;;;;;;;;;;5012015;28;19926;-76
2022/07/18 06:06:36;;;;;;;;;;;;;;;;;;5010552;28;19933;-76
2022/07/18 06:09:04;;;;;;;;;;;;;;;;;;5013559;28;20016;-76
2022/07/18 06:11:31;;;;;;;;;;;;;;;;;;4981822;28;20054;-76
2022/07/18 06:14:03;;;;;;;;;;;;;;;;;;4983149;28;20051;-75
2022/07/18 06:16:30;;;;;;;;;;;;;;;;;;5004748;28;20021;-75
2022/07/18 06:18:58;;;;;;;;;;;;;;;;;;5012590;28;20299;-75
2022/07/18 06:21:26;;;;;;;;;;;;;;;;;;5016697;28;19925;-75
2022/07/18 06:23:53;;;;;;;;;;;;;;;;;;5027941;28;20344;-75
2022/07/18 06:26:21;;;;;;;;;;;;;;;;;;5027064;28;19926;-75
2022/07/18 06:28:49;;;;;;;;;;;;;;;;;;5027734;28;19925;-76
2022/07/18 06:31:17;;;;;;;;;;;;;;;;;;4986447;28;20036;-75
2022/07/18 06:33:45;;;;;;;;;;;;;;;;;;5010658;28;19925;-75
2022/07/18 06:36:13;;;;;;;;;;;;;;;;;;5021301;28;19929;-75
2022/07/18 06:38:40;;;;;;;;;;;;;;;;;;5008662;28;19930;-75
2022/07/18 06:41:08;;;;;;;;;;;;;;;;;;5011433;28;19925;-76
2022/07/18 06:43:36;;;;;;;;;;;;;;;;;;5011791;28;19933;-75
2022/07/18 06:46:28;;;;;;;;;;;;;;;;;;5006792;28;20034;-76
2022/07/18 06:48:57;;;;;;;;;;;;;;;;;;5011568;28;19925;-76
2022/07/18 06:51:25;;;;;;;;;;;;;;;;;;5008450;28;19925;-76
2022/07/18 06:53:53;;;;;;;;;;;;;;;;;;4980667;28;20015;-75
2022/07/18 06:56:21;;;;;;;;;;;;;;;;;;5011889;28;19933;-76
2022/07/18 06:58:50;;;;;;;;;;;;;;;;;;5010986;28;19999;-75
2022/07/18 07:01:17;;;;;;;;;;;;;;;;;;5000495;28;20008;-76
2022/07/18 07:03:45;;;;;;;;;;;;;;;;;;5011631;28;20012;-75
2022/07/18 07:06:13;;;;;;;;;;;;;;;;;;4989471;28;19941;-76
2022/07/18 07:08:40;;;;;;;;;;;;;;;;;;5011057;28;19938;-75
2022/07/18 07:11:08;;;;;;;;;;;;;;;;;;5023956;28;19933;-76
2022/07/18 07:13:36;;;;;;;;;;;;;;;;;;5017339;28;19933;-75
2022/07/18 07:16:28;;;;;;;;;;;;;;;;;;4986251;28;20085;-76
2022/07/18 07:18:56;;;;;;;;;;;;;;;;;;4992369;28;19933;-76
2022/07/18 07:21:23;;;;;;;;;;;;;;;;;;5010206;28;19937;-76
2022/07/18 07:23:51;;;;;;;;;;;;;;;;;;4988559;28;19936;-76
2022/07/18 07:26:18;;;;;;;;;;;;;;;;;;4990429;28;19926;-76
2022/07/18 07:28:46;;;;;;;;;;;;;;;;;;4984473;28;20410;-76
2022/07/18 07:31:14;;;;;;;;;;;;;;;;;;4986967;28;19925;-76
2022/07/18 07:33:44;;;;;;;;;;;;;;;;;;4989161;28;19926;-76
2022/07/18 07:36:12;;;;;;;;;;;;;;;;;;4999387;28;20260;-76
2022/07/18 07:38:39;;;;;;;;;;;;;;;;;;4971868;28;19926;-75
2022/07/18 07:41:13;;;;;;;;;;;;;;;;;;5005143;28;20352;-76
2022/07/18 07:43:40;;;;;;;;;;;;;;;;;;4989759;28;20552;-74
2022/07/18 07:46:11;;;;;;;;;;;;;;;;;;4975298;28;20390;-75
2022/07/18 07:48:39;;;;;;;;;;;;;;;;;;4976292;28;20022;-75
2022/07/18 07:51:09;;;;;;;;;;;;;;;;;;4972805;28;20381;-74
2022/07/18 07:53:41;;;;;;;;;;;;;;;;;;4969503;28;19926;-74
2022/07/18 07:56:10;;;;;;;;;;;;;;;;;;4970856;28;20303;-74
2022/07/18 07:58:38;;;;;;;;;;;;;;;;;;4968504;28;20395;-75
2022/07/18 08:01:07;;;;;;;;;;;;;;;;;;4977812;28;19938;-74
2022/07/18 08:03:35;;;;;;;;;;;;;;;;;;4967253;28;19938;-74
2022/07/18 08:06:03;;;;;;;;;;;;;;;;;;4971080;28;19953;-73
2022/07/18 08:08:30;;;;;;;;;;;;;;;;;;4951568;28;19926;-73
2022/07/18 08:10:58;;;;;;;;;;;;;;;;;;4968463;28;19926;-73
2022/07/18 08:13:50;;;;;;;;;;;;;;;;;;4985748;28;19945;-73
2022/07/18 08:16:17;;;;;;;;;;;;;;;;;;4985441;28;19949;-73
2022/07/18 08:18:45;;;;;;;;;;;;;;;;;;5005076;28;20283;-73
2022/07/18 08:21:14;;;;;;;;;;;;;;;;;;4987584;28;20380;-73
2022/07/18 08:23:43;;;;;;;;;;;;;;;;;;4992715;28;19972;-73
2022/07/18 08:26:20;;;;;;;;;;;;;;;;;;5005197;28;19925;-73
2022/07/18 08:28:48;;;;;;;;;;;;;;;;;;5009763;28;19953;-73
2022/07/18 08:31:16;;;;;;;;;;;;;;;;;;5019021;28;19969;-73
2022/07/18 08:33:44;;;;;;;;;;;;;;;;;;5022198;28;19927;-73
2022/07/18 08:36:12;;;;;;;;;;;;;;;;;;4989985;28;19926;-73
2022/07/18 08:38:39;;;;;;;;;;;;;;;;;;4990122;28;19953;-73
2022/07/18 08:41:07;;;;;;;;;;;;;;;;;;4993409;28;19934;-73
2022/07/18 08:43:35;;;;;;;;;;;;;;;;;;4991948;28;19996;-73
2022/07/18 08:46:28;;;;;;;;;;;;;;;;;;5004212;28;19932;-73
2022/07/18 08:48:55;;;;;;;;;;;;;;;;;;5011515;28;19987;-73
2022/07/18 08:51:23;;;;;;;;;;;;;;;;;;5010720;28;19972;-73
2022/07/18 08:53:51;;;;;;;;;;;;;;;;;;4993793;28;19939;-73
2022/07/18 08:56:19;;;;;;;;;;;;;;;;;;5011274;28;19931;-73
2022/07/18 08:58:47;;;;;;;;;;;;;;;;;;4995824;28;19933;-73
2022/07/18 09:01:15;;;;;;;;;;;;;;;;;;4972613;28;19960;-73
2022/07/18 09:03:42;;;;;;;;;;;;;;;;;;5013945;28;19929;-73
2022/07/18 09:06:10;;;;;;;;;;;;;;;;;;4993642;28;19936;-73
2022/07/18 09:08:38;;;;;;;;;;;;;;;;;;5008339;28;19926;-73
2022/07/18 09:11:08;;;;;;;;;;;;;;;;;;5024548;28;19926;-74
2022/07/18 09:13:48;;;;;;;;;;;;;;;;;;5018686;28;19930;-74
2022/07/18 09:16:16;;;;;;;;;;;;;;;;;;4994103;28;19941;-73
2022/07/18 09:18:44;;;;;;;;;;;;;;;;;;4986985;28;19937;-73
2022/07/18 09:21:12;;;;;;;;;;;;;;;;;;4982704;28;19926;-73
2022/07/18 09:23:40;;;;;;;;;;;;;;;;;;4969330;28;19933;-72
2022/07/18 09:26:10;;;;;;;;;;;;;;;;;;4988766;28;20033;-74
2022/07/18 09:28:38;;;;;;;;;;;;;;;;;;4989319;28;19927;-74
2022/07/18 09:31:10;;;;;;;;;;;;;;;;;;4972173;28;19934;-73
2022/07/18 09:33:37;;;;;;;;;;;;;;;;;;4970699;28;19996;-74
2022/07/18 09:36:07;;;;;;;;;;;;;;;;;;4936493;28;19926;-73
2022/07/18 09:38:35;;;;;;;;;;;;;;;;;;5000993;28;19976;-74
2022/07/18 09:41:03;;;;;;;;;;;;;;;;;;4941267;29;19926;-73
2022/07/18 09:43:31;;;;;;;;;;;;;;;;;;4966971;28;19969;-73
2022/07/18 09:45:58;;;;;;;;;;;;;;;;;;4963996;28;19962;-73
2022/07/18 09:48:26;;;;;;;;;;;;;;;;;;4988326;28;20024;-74
2022/07/18 09:50:55;;;;;;;;;;;;;;;;;;4955405;28;19944;-74
2022/07/18 09:53:23;;;;;;;;;;;;;;;;;;4973299;28;19930;-73
2022/07/18 09:56:00;;;;;;;;;;;;;;;;;;4951803;28;19934;-74
2022/07/18 09:58:28;;;;;;;;;;;;;;;;;;4988403;28;20272;-73
2022/07/18 10:00:56;;;;;;;;;;;;;;;;;;4967443;28;20001;-73
2022/07/18 10:03:23;;;;;;;;;;;;;;;;;;5004129;28;19930;-73
2022/07/18 10:05:51;;;;;;;;;;;;;;;;;;5004330;28;19926;-73
2022/07/18 10:08:18;;;;;;;;;;;;;;;;;;5003659;28;20036;-74
2022/07/18 10:10:46;;;;;;;;;;;;;;;;;;5001773;28;19930;-74
2022/07/18 10:14:03;;;;;;;;;;;;;;;;;;5008875;28;20003;-74
2022/07/18 10:16:31;;;;;;;;;;;;;;;;;;5002433;28;20463;-74
2022/07/18 10:18:59;;;;;;;;;;;;;;;;;;5002678;28;20458;-74
2022/07/18 10:21:29;;;;;;;;;;;;;;;;;;4991838;28;19934;-74
2022/07/18 10:23:57;;;;;;;;;;;;;;;;;;5004674;28;19926;-73
2022/07/18 10:26:29;;;;;;;;;;;;;;;;;;5022789;28;19956;-74
2022/07/18 10:28:56;;;;;;;;;;;;;;;;;;4993003;28;19926;-79
2022/07/18 10:31:24;;;;;;;;;;;;;;;;;;4970813;28;19934;-79
2022/07/18 10:33:51;;;;;;;;;;;;;;;;;;5012264;28;20016;-81
2022/07/18 10:36:19;;;;;;;;;;;;;;;;;;4984211;28;19926;-81
2022/07/18 10:38:47;;;;;;;;;;;;;;;;;;5009408;28;19944;-81
2022/07/18 10:41:14;;;;;;;;;;;;;;;;;;4991976;28;19926;-79
2022/07/18 10:43:42;;;;;;;;;;;;;;;;;;4991307;28;19933;-74
2022/07/18 10:46:15;;;;;;;;;;;;;;;;;;5002682;28;19929;-73
2022/07/18 10:48:44;;;;;;;;;;;;;;;;;;4987004;28;19989;-74
2022/07/18 10:51:12;;;;;;;;;;;;;;;;;;5006454;28;19932;-74
2022/07/18 10:53:42;;;;;;;;;;;;;;;;;;5014685;28;20311;-74
2022/07/18 10:56:09;;;;;;;;;;;;;;;;;;5022202;28;19926;-79
2022/07/18 10:58:37;;;;;;;;;;;;;;;;;;4990443;28;19926;-78
2022/07/18 11:01:07;;;;;;;;;;;;;;;;;;5017701;28;19980;-76
2022/07/18 11:03:34;;;;;;;;;;;;;;;;;;4978769;28;19925;-79
2022/07/18 11:06:02;;;;;;;;;;;;;;;;;;4992353;28;19925;-80
2022/07/18 11:08:31;;;;;;;;;;;;;;;;;;4992638;28;20343;-75
2022/07/18 11:11:01;;;;;;;;;;;;;;;;;;4976805;28;19926;-79
2022/07/18 11:13:54;;;;;;;;;;;;;;;;;;5006614;28;20005;-76
2022/07/18 11:16:22;;;;;;;;;;;;;;;;;;4962677;28;20031;-76
2022/07/18 11:18:50;;;;;;;;;;;;;;;;;;4986551;28;19937;-75
2022/07/18 11:21:44;;;;;;;;;;;;;;;;;;5011946;28;19941;-74
2022/07/18 11:24:12;;;;;;;;;;;;;;;;;;4993256;28;19925;-73
2022/07/18 11:26:40;;;;;;;;;;;;;;;;;;4981209;28;19926;-74
2022/07/18 11:29:08;;;;;;;;;;;;;;;;;;4996273;28;20198;-74
2022/07/18 11:31:41;;;;;;;;;;;;;;;;;;4994644;28;19926;-74
2022/07/18 11:34:09;;;;;;;;;;;;;;;;;;4957501;28;20021;-75
2022/07/18 11:37:01;;;;;;;;;;;;;;;;;;4961094;28;20391;-74
2022/07/18 11:39:29;;;;;;;;;;;;;;;;;;4967888;28;19930;-74
2022/07/18 11:41:57;;;;;;;;;;;;;;;;;;5018993;28;20396;-74
2022/07/18 11:44:27;;;;;;;;;;;;;;;;;;5002555;28;19930;-74
2022/07/18 11:46:55;;;;;;;;;;;;;;;;;;4992819;28;19937;-74
2022/07/18 11:49:22;;;;;;;;;;;;;;;;;;4950576;28;19937;-74
2022/07/18 11:51:50;;;;;;;;;;;;;;;;;;4960774;28;19930;-74
2022/07/18 11:54:18;;;;;;;;;;;;;;;;;;4969989;28;19988;-74
2022/07/18 11:56:45;;;;;;;;;;;;;;;;;;4995795;28;20439;-74
2022/07/18 11:59:13;;;;;;;;;;;;;;;;;;5000296;28;19926;-74
2022/07/18 12:01:40;;;;;;;;;;;;;;;;;;4975139;28;20013;-74
2022/07/18 12:04:08;;;;;;;;;;;;;;;;;;5002479;28;20013;-75
2022/07/18 12:06:36;;;;;;;;;;;;;;;;;;4976013;28;19926;-74
2022/07/18 12:09:04;;;;;;;;;;;;;;;;;;4977780;28;19934;-74
2022/07/18 12:11:32;;;;;;;;;;;;;;;;;;4968761;28;20016;-74
2022/07/18 12:13:59;;;;;;;;;;;;;;;;;;5000795;28;19984;-74
2022/07/18 12:16:33;;;;;;;;;;;;;;;;;;5012498;28;20008;-74
2022/07/18 12:19:02;;;;;;;;;;;;;;;;;;4982471;28;19933;-74
2022/07/18 12:21:30;;;;;;;;;;;;;;;;;;5021836;28;19934;-74
2022/07/18 12:23:58;;;;;;;;;;;;;;;;;;4978883;28;20296;-74
2022/07/18 12:26:25;;;;;;;;;;;;;;;;;;5020175;28;19937;-74
2022/07/18 12:29:12;;;;;;;;;;;;;;;;;;5003585;28;20325;-74
2022/07/18 12:31:39;;;;;;;;;;;;;;;;;;5012187;28;19929;-74
2022/07/18 12:34:10;;;;;;;;;;;;;;;;;;5003525;28;20253;-74
2022/07/18 12:37:02;;;;;;;;;;;;;;;;;;5021061;28;20009;-74
2022/07/18 12:39:55;;;;;;;;;;;;;;;;;;4990281;28;20028;-74
2022/07/18 12:42:43;;;;;;;;;;;;;;;;;;4979149;28;19988;-74
2022/07/18 12:45:11;;;;;;;;;;;;;;;;;;5002716;28;19932;-74
2022/07/18 12:47:38;;;;;;;;;;;;;;;;;;5010467;28;19941;-74
2022/07/18 12:50:09;;;;;;;;;;;;;;;;;;5017187;28;20374;-74
2022/07/18 12:52:44;;;;;;;;;;;;;;;;;;4973501;28;19999;-74
2022/07/18 12:55:12;;;;;;;;;;;;;;;;;;5018229;28;19948;-74
2022/07/18 12:57:39;;;;;;;;;;;;;;;;;;5024896;28;19965;-75
2022/07/18 13:00:32;;;;;;;;;;;;;;;;;;4998783;28;20027;-74
2022/07/18 13:03:00;;;;;;;;;;;;;;;;;;4972743;28;19934;-74
2022/07/18 13:05:27;;;;;;;;;;;;;;;;;;4988060;28;19952;-74
2022/07/18 13:07:55;;;;;;;;;;;;;;;;;;4990361;28;19926;-74
2022/07/18 13:10:23;;;;;;;;;;;;;;;;;;4959578;28;19929;-74
2022/07/18 13:12:50;;;;;;;;;;;;;;;;;;5007065;28;19937;-74
2022/07/18 13:15:20;;;;;;;;;;;;;;;;;;4984448;28;19927;-74
2022/07/18 13:17:48;;;;;;;;;;;;;;;;;;5029051;28;20338;-74
2022/07/18 13:20:16;;;;;;;;;;;;;;;;;;5015837;28;19925;-74
2022/07/18 13:22:44;;;;;;;;;;;;;;;;;;5012343;28;19936;-74
2022/07/18 13:25:18;;;;;;;;;;;;;;;;;;5011368;28;19953;-72
2022/07/18 13:27:46;;;;;;;;;;;;;;;;;;5026431;28;19926;-74
2022/07/18 13:30:13;;;;;;;;;;;;;;;;;;4973733;28;20040;-73
2022/07/18 13:32:44;;;;;;;;;;;;;;;;;;5020511;28;19967;-74
2022/07/18 13:35:12;;;;;;;;;;;;;;;;;;5010022;28;19972;-74
2022/07/18 13:37:39;;;;;;;;;;;;;;;;;;5028877;28;19926;-74
2022/07/18 13:40:08;;;;;;;;;;;;;;;;;;5026595;28;20308;-74
2022/07/18 13:42:36;;;;;;;;;;;;;;;;;;4994355;28;19926;-72
2022/07/18 13:45:03;;;;;;;;;;;;;;;;;;5006652;28;19925;-73
2022/07/18 13:47:31;;;;;;;;;;;;;;;;;;5027906;28;20045;-72
2022/07/18 13:49:59;;;;;;;;;;;;;;;;;;5005070;28;20383;-72
2022/07/18 13:52:26;;;;;;;;;;;;;;;;;;5007917;28;19933;-72
2022/07/18 13:54:54;;;;;;;;;;;;;;;;;;5011300;28;19926;-72
2022/07/18 13:57:23;;;;;;;;;;;;;;;;;;5027426;28;20289;-72
2022/07/18 14:00:20;;;;;;;;;;;;;;;;;;5006934;28;19932;-72
2022/07/18 14:02:47;;;;;;;;;;;;;;;;;;5012165;28;19933;-72
2022/07/18 14:05:15;;;;;;;;;;;;;;;;;;5029695;28;19925;-72
2022/07/18 14:07:43;;;;;;;;;;;;;;;;;;4998644;28;19933;-73
2022/07/18 14:10:10;;;;;;;;;;;;;;;;;;5024140;28;19963;-73
2022/07/18 14:12:38;;;;;;;;;;;;;;;;;;4981129;28;19934;-73
2022/07/18 14:15:06;;;;;;;;;;;;;;;;;;5019512;28;20272;-74
2022/07/18 14:17:34;;;;;;;;;;;;;;;;;;4995441;28;19925;-73
2022/07/18 14:20:01;;;;;;;;;;;;;;;;;;5024576;28;19960;-73
2022/07/18 14:22:29;;;;;;;;;;;;;;;;;;5004277;28;21156;-73
2022/07/18 14:24:56;;;;;;;;;;;;;;;;;;5010181;28;19983;-73
2022/07/18 14:27:24;;;;;;;;;;;;;;;;;;5008693;28;20403;-73
2022/07/18 14:29:51;;;;;;;;;;;;;;;;;;4995372;28;19969;-73
2022/07/18 14:32:19;;;;;;;;;;;;;;;;;;5010352;28;20618;-73
2022/07/18 14:34:49;;;;;;;;;;;;;;;28.72;nan;98546.66;4981549;28;19933;-73
2022/07/18 14:37:18;;;;;;;;;;;;;;;28.90;nan;98543.63;5008528;28;19941;-73
2022/07/18 14:39:46;;;;;;;;;;;;;;;28.97;nan;98546.34;4992057;28;20416;-73
2022/07/18 14:42:20;;;;;;;;;;;;;;;28.87;nan;98548.06;4988721;28;19925;-75
2022/07/18 14:44:48;;;;;;;;;;;;;;;28.84;nan;98560.06;4989724;28;19972;-75
2022/07/18 14:47:16;;;;;;;;;;;;;;;28.81;nan;98555.31;4975011;28;19926;-75
2022/07/18 14:49:45;;;;;;;;;;;;;;;28.81;nan;98548.94;5014720;28;19926;-75
2022/07/18 14:52:14;;;;;;;;;;;;;;;28.85;nan;98547.69;4992968;28;19957;-75
2022/07/18 14:54:42;;;;;;;;;;;;;;;28.84;nan;98546.09;4994454;28;20364;-75
2022/07/18 14:57:10;;;;;;;;;;;;;;;28.90;nan;98540.84;5007841;28;20004;-75
2022/07/18 14:59:38;;;;;;;;;;;;;;;28.84;nan;98537.72;4991715;28;19926;-75
2022/07/18 15:02:06;;;;;;;;;;;;;;;28.88;nan;98543.25;5000641;28;19934;-75
2022/07/18 15:04:35;;;;;;;;;;;;;;;28.89;nan;98531.66;5006375;28;19948;-74
2022/07/18 15:07:03;;;;;;;;;;;;;;;28.99;nan;98532.75;5014705;28;19979;-75
2022/07/18 15:09:32;;;;;;;;;;;;;;;29.16;nan;98530.94;5009942;28;20451;-74
2022/07/18 15:12:01;;;;;;;;;;;;;;;29.10;nan;98522.22;4988429;28;19933;-73
2022/07/18 15:14:30;;;;;;;;;;;;;;;28.96;nan;98520.38;4999452;28;20351;-75
2022/07/18 15:16:58;;;;;;;;;;;;;;;28.91;nan;98520.81;4998045;28;19929;-74
2022/07/18 15:19:26;;;;;;;;;;;;;;;28.90;nan;98524.06;5004807;28;19929;-75
2022/07/18 15:21:54;;;;;;;;;;;;;;;28.84;nan;98520.13;4989374;28;19925;-74
2022/07/18 15:24:22;;;;;;;;;;;;;;;28.92;nan;98522.44;4998509;28;19996;-74
2022/07/18 15:26:51;;;;;;;;;;;;;;;28.99;nan;98521.56;4999831;28;19961;-74
2022/07/18 15:29:19;;;;;;;;;;;;;;;29.19;nan;98513.28;4976371;28;19926;-74
2022/07/18 15:31:47;;;;;;;;;;;;;;;29.13;nan;98512.97;4996408;28;19925;-75
2022/07/18 15:34:23;;;;;;;;;;;;;;;29.04;nan;98500.72;4987402;28;19929;-75
2022/07/18 15:36:51;;;;;;;;;;;;;;;29.06;nan;98510.28;5002603;28;19930;-74
2022/07/18 15:39:20;;;;;;;;;;;;;;;29.01;nan;98502.34;5006022;28;20020;-74
2022/07/18 15:41:48;;;;;;;;;;;;;;;29.00;nan;98500.78;5002842;28;19978;-74
2022/07/18 15:44:17;;;;;;;;;;;;;;;29.05;nan;98499.50;5002902;28;20361;-74
2022/07/18 15:46:45;;;;;;;;;;;;;;;29.03;nan;98499.94;4966332;28;19925;-74
2022/07/18 15:49:13;;;;;;;;;;;;;;;28.94;nan;98489.25;4973238;28;19966;-74
2022/07/18 15:51:42;;;;;;;;;;;;;;;29.00;nan;98503.56;4985853;28;19926;-74
2022/07/18 15:54:11;;;;;;;;;;;;;;;28.92;nan;98496.44;4990346;28;20013;-75
2022/07/18 15:56:39;;;;;;;;;;;;;;;28.93;nan;98498.88;4989975;28;19984;-74
2022/07/18 15:59:07;;;;;;;;;;;;;;;28.90;nan;98502.47;4988052;28;20319;-79
2022/07/18 16:01:39;;;;;;;;;;;;;;;28.84;nan;98492.97;4985020;28;19941;-82
2022/07/18 16:04:08;;;;;;;;;;;;;;;28.75;nan;98489.88;4980362;28;20009;-84
2022/07/18 16:06:37;;;;;;;;;;;;;;;28.68;nan;98492.78;4988827;28;19937;-94
2022/07/18 16:09:05;;;;;;;;;;;;;;;28.65;nan;98490.78;4990040;28;19926;-86
2022/07/18 16:11:39;;;;;;;;;;;;;;;28.77;nan;98489.47;4991914;28;19961;-82
2022/07/18 16:14:08;;;;;;;;;;;;;;;28.84;nan;98486.56;5025194;28;19925;-81
2022/07/18 16:16:37;;;;;;;;;;;;;;;28.86;nan;98484.16;4985217;28;19925;-84
2022/07/18 16:19:07;;;;;;;;;;;;;;;28.88;nan;98481.72;4993356;28;20312;-85
2022/07/18 16:21:36;;;;;;;;;;;;;;;28.81;nan;98481.81;4988114;28;20020;-82
2022/07/18 16:24:05;;;;;;;;;;;;;;;28.79;nan;98476.66;5002281;28;19972;-84
2022/07/18 16:26:33;;;;;;;;;;;;;;;28.91;nan;98481.66;4998957;28;19930;-89
2022/07/18 16:29:02;;;;;;;;;;;;;;;28.76;nan;98479.47;5021708;28;19944;-82
2022/07/18 16:31:31;;;;;;;;;;;;;;;28.62;nan;98472.88;5006753;28;19926;-87